ENSO/SRP METAR and TAF weather

Enter ICAO airport designator
Station Type Date Time Source
ENSO METAR 2022/06/29 16:50 UTC NOAA

ENSO 291650Z 27006KT CAVOK 23/10 Q1017


Station Type Date Time Source
ENSO Decoded METAR 2022/06/29 16:50 UTC NOAA

Stord / Soerstokken, Norway (ENSO) 59-48N 005-21E
Jun 29, 2022 - 12:50 PM EDT / 2022.06.29 1650 UTC
Wind: from the W (270 degrees) at 7 MPH (6 KT):0
Visibility: greater than 7 mile(s):0
Temperature: 73 F (23 C)
Dew Point: 50 F (10 C)
Relative Humidity: 43%
Pressure (altimeter): 30.03 in. Hg (1017 hPa)
ob: ENSO 291650Z 27006KT CAVOK 23/10 Q1017
cycle: 17

Station Type Date Time Source
ENSO TAF UTC NOAA

Error!

Example: see airport list